createdAt,value
2022-08-09T00:00:13.815Z,53.27
2022-08-09T00:02:49.097Z,53.16
2022-08-09T00:06:17.559Z,53.18
2022-08-09T00:08:09.687Z,53.28
2022-08-09T00:10:40.933Z,52.95
2022-08-09T00:13:17.040Z,53.05
2022-08-09T00:15:58.735Z,53.28
2022-08-09T00:18:27.304Z,53.17
2022-08-09T00:20:56.181Z,53.28
2022-08-09T00:23:57.792Z,52.91
2022-08-09T00:26:11.124Z,53.00
2022-08-09T00:28:39.596Z,53.31
2022-08-09T00:31:50.497Z,53.37
2022-08-09T00:33:55.146Z,53.06
2022-08-09T00:36:27.213Z,52.99
2022-08-09T00:38:58.429Z,53.03
2022-08-09T00:44:14.660Z,53.25
2022-08-09T00:44:26.819Z,53.46
2022-08-09T00:47:04.574Z,53.45
2022-08-09T00:49:36.567Z,53.41
2022-08-09T00:52:06.123Z,53.46
2022-08-09T00:54:43.224Z,53.46
2022-08-09T00:57:12.705Z,53.65
2022-08-09T00:59:46.942Z,53.63
2022-08-09T01:02:25.317Z,53.86
2022-08-09T01:05:13.743Z,54.21
2022-08-09T01:08:00.729Z,54.16
2022-08-09T01:10:34.657Z,54.11
2022-08-09T01:13:11.819Z,54.03
2022-08-09T01:15:52.598Z,54.50
2022-08-09T01:18:30.144Z,54.65
2022-08-09T01:21:44.856Z,54.72
2022-08-09T01:24:24.054Z,55.00
2022-08-09T01:27:07.922Z,54.32
2022-08-09T01:29:55.527Z,54.45
2022-08-09T01:32:36.462Z,54.41
2022-08-09T01:35:28.370Z,54.39
2022-08-09T01:38:08.478Z,54.72
2022-08-09T01:40:43.084Z,55.00
2022-08-09T01:43:11.564Z,55.29
2022-08-09T01:45:44.831Z,55.41
2022-08-09T01:48:16.502Z,55.17
2022-08-09T01:50:49.034Z,55.47
2022-08-09T01:53:29.013Z,55.31
2022-08-09T01:56:09.199Z,55.19
2022-08-09T01:58:37.152Z,55.37
2022-08-09T02:01:05.870Z,55.26
2022-08-09T02:03:35.849Z,55.45
2022-08-09T02:06:06.778Z,55.38
2022-08-09T02:08:57.697Z,55.70
2022-08-09T02:11:42.621Z,55.36
2022-08-09T02:14:15.096Z,55.53
2022-08-09T02:17:14.783Z,55.45
2022-08-09T02:19:43.572Z,55.56
2022-08-09T02:22:19.043Z,55.47
2022-08-09T02:24:58.057Z,56.06
2022-08-09T02:27:57.409Z,55.90
2022-08-09T02:30:17.119Z,56.19
2022-08-09T02:32:47.382Z,56.13
2022-08-09T02:36:01.047Z,56.19
2022-08-09T02:38:11.309Z,56.15
2022-08-09T02:40:49.870Z,56.45
2022-08-09T02:43:21.147Z,56.48
2022-08-09T02:45:49.396Z,57.02
2022-08-09T02:48:30.803Z,56.69
2022-08-09T02:51:02.512Z,56.72
2022-08-09T02:53:35.221Z,56.74
2022-08-09T02:56:04.109Z,56.81
2022-08-09T02:58:37.009Z,56.71
2022-08-09T03:01:11.024Z,56.75
2022-08-09T03:04:16.578Z,56.73
2022-08-09T03:06:30.577Z,56.85
2022-08-09T03:08:57.918Z,56.75
2022-08-09T03:11:30.185Z,57.01
2022-08-09T03:14:13.121Z,57.41
2022-08-09T03:16:47.513Z,57.29
2022-08-09T03:19:59.553Z,57.58
2022-08-09T03:22:12.541Z,57.60
2022-08-09T03:25:06.185Z,57.40
2022-08-09T03:27:44.561Z,57.67
2022-08-09T03:30:28.074Z,57.75
2022-08-09T03:33:01.472Z,57.88
2022-08-09T03:36:11.267Z,57.71
2022-08-09T03:38:28.781Z,58.09
2022-08-09T03:40:58.066Z,58.07
2022-08-09T03:43:31.426Z,58.05
2022-08-09T03:46:05.126Z,58.16
2022-08-09T03:48:53.894Z,58.21
2022-08-09T03:51:56.819Z,58.34
2022-08-09T03:54:14.297Z,58.25
2022-08-09T03:56:41.899Z,58.35
2022-08-09T03:59:13.571Z,58.11
2022-08-09T04:01:44.385Z,58.29
2022-08-09T04:04:14.781Z,58.44
2022-08-09T04:06:43.993Z,58.19
2022-08-09T04:09:47.743Z,58.71
2022-08-09T04:12:11.946Z,58.44
2022-08-09T04:15:02.061Z,58.26
2022-08-09T04:17:42.496Z,58.59
2022-08-09T04:20:12.699Z,58.82
2022-08-09T04:22:41.271Z,59.18
2022-08-09T04:25:12.195Z,58.97
2022-08-09T04:27:48.951Z,58.91
2022-08-09T04:30:20.962Z,58.95
2022-08-09T04:32:51.074Z,58.79
2022-08-09T04:35:18.564Z,58.53
2022-08-09T04:37:49.923Z,58.90
2022-08-09T04:40:19.037Z,59.02
2022-08-09T04:42:48.584Z,58.86
2022-08-09T04:45:16.621Z,59.02
2022-08-09T04:48:01.115Z,58.59
2022-08-09T04:50:31.752Z,58.92
2022-08-09T04:53:02.134Z,58.76
2022-08-09T04:55:32.456Z,58.83
2022-08-09T04:58:09.440Z,58.84
2022-08-09T05:00:37.262Z,58.52
2022-08-09T05:03:12.860Z,58.75
2022-08-09T05:06:04.570Z,58.36
2022-08-09T05:08:35.996Z,58.63
2022-08-09T05:11:03.502Z,58.45
2022-08-09T05:13:38.920Z,58.31
2022-08-09T05:16:10.135Z,57.94
2022-08-09T05:18:58.730Z,58.10
2022-08-09T05:21:30.110Z,57.75
2022-08-09T05:24:01.646Z,57.42
2022-08-09T05:26:37.166Z,57.70
2022-08-09T05:29:21.972Z,57.35
2022-08-09T05:31:56.804Z,57.30
2022-08-09T05:34:32.492Z,57.22
2022-08-09T05:37:06.910Z,56.97
2022-08-09T05:39:43.435Z,57.02
2022-08-09T05:42:18.023Z,56.68
2022-08-09T05:44:52.976Z,56.48
2022-08-09T05:47:22.853Z,56.23
2022-08-09T05:50:24.511Z,55.98
2022-08-09T05:52:38.991Z,55.68
2022-08-09T05:55:08.790Z,55.67
2022-08-09T05:57:51.021Z,55.68
2022-08-09T06:00:28.802Z,55.46
2022-08-09T06:03:02.523Z,55.46
2022-08-09T06:05:57.189Z,54.79
2022-08-09T06:08:24.709Z,55.10
2022-08-09T06:10:53.871Z,54.76
2022-08-09T06:13:21.484Z,54.75
2022-08-09T06:15:51.706Z,54.41
2022-08-09T06:18:25.018Z,53.62
2022-08-09T06:20:54.820Z,53.75
2022-08-09T06:23:57.752Z,53.53
2022-08-09T06:26:13.565Z,53.44
2022-08-09T06:28:43.272Z,52.75
2022-08-09T06:31:10.986Z,52.28
2022-08-09T06:33:41.047Z,52.21
2022-08-09T06:36:09.457Z,52.13
2022-08-09T06:38:47.184Z,51.91
2022-08-09T06:41:18.958Z,51.74
2022-08-09T06:43:47.646Z,51.43
2022-08-09T06:46:40.534Z,51.16
2022-08-09T06:49:02.702Z,50.67
2022-08-09T06:51:29.792Z,50.49
2022-08-09T06:54:00.769Z,50.50
2022-08-09T06:56:31.026Z,50.07
2022-08-09T07:00:55.691Z,49.71
2022-08-09T07:01:54.122Z,49.09
2022-08-09T07:04:26.987Z,48.70
2022-08-09T07:06:59.901Z,48.97
2022-08-09T07:09:55.253Z,48.14
2022-08-09T07:12:17.847Z,47.88
2022-08-09T07:14:50.919Z,47.16
2022-08-09T07:17:21.477Z,46.72
2022-08-09T07:19:50.636Z,46.71
2022-08-09T07:22:34.666Z,46.21
2022-08-09T07:25:05.052Z,45.84
2022-08-09T07:27:33.968Z,45.53
2022-08-09T07:30:02.853Z,45.15
2022-08-09T07:32:32.022Z,44.64
2022-08-09T07:35:10.755Z,44.10
2022-08-09T07:37:44.639Z,43.63
2022-08-09T07:40:18.733Z,43.60
2022-08-09T07:43:00.504Z,43.24
2022-08-09T07:45:39.283Z,42.50
2022-08-09T07:48:28.498Z,42.48
2022-08-09T07:51:09.351Z,42.44
2022-08-09T07:54:05.354Z,41.94
2022-08-09T07:56:33.671Z,41.76
2022-08-09T07:59:01.893Z,42.02
2022-08-09T08:01:33.898Z,41.57
2022-08-09T08:04:03.100Z,41.36
2022-08-09T08:06:31.944Z,41.23
2022-08-09T08:09:04.872Z,40.66
2022-08-09T08:12:09.829Z,40.46
2022-08-09T08:14:21.037Z,39.79
2022-08-09T08:17:00.937Z,39.95
2022-08-09T08:19:35.225Z,39.40
2022-08-09T08:22:03.229Z,39.41
2022-08-09T08:24:35.429Z,39.14
2022-08-09T08:27:16.885Z,38.58
2022-08-09T08:29:50.105Z,38.72
2022-08-09T08:32:29.209Z,38.11
2022-08-09T08:34:58.512Z,38.16
2022-08-09T08:37:41.262Z,38.27
2022-08-09T08:40:17.194Z,38.11
2022-08-09T08:42:47.212Z,38.10
2022-08-09T08:45:15.031Z,37.78
2022-08-09T08:47:44.910Z,37.35
2022-08-09T08:50:15.689Z,37.28
2022-08-09T08:52:58.450Z,37.07
2022-08-09T08:55:27.742Z,37.11
2022-08-09T08:57:58.530Z,36.46
2022-08-09T09:00:30.559Z,36.83
2022-08-09T09:03:11.363Z,36.37
2022-08-09T09:05:59.021Z,36.00
2022-08-09T09:08:37.779Z,35.59
2022-08-09T09:11:07.271Z,34.80
2022-08-09T09:13:50.224Z,34.87
2022-08-09T09:16:29.748Z,34.88
2022-08-09T09:19:21.569Z,34.61
2022-08-09T09:22:11.772Z,34.63
2022-08-09T09:24:51.168Z,34.42
2022-08-09T09:28:05.905Z,33.99
2022-08-09T09:30:40.115Z,33.69
2022-08-09T09:33:16.668Z,33.17
2022-08-09T09:36:01.058Z,32.42
2022-08-09T09:38:44.580Z,32.04
2022-08-09T09:41:49.082Z,32.44
2022-08-09T09:44:32.708Z,32.64
2022-08-09T09:47:13.333Z,32.30
2022-08-09T09:50:07.293Z,32.51
2022-08-09T09:52:53.485Z,32.26
2022-08-09T09:55:31.387Z,31.72
2022-08-09T09:58:16.331Z,31.52
2022-08-09T10:00:54.545Z,32.35
2022-08-09T10:03:44.103Z,31.66
2022-08-09T10:06:13.018Z,32.00
2022-08-09T10:08:43.209Z,32.32
2022-08-09T10:12:07.584Z,31.79
2022-08-09T10:14:33.015Z,30.75
2022-08-09T10:17:50.755Z,30.82
2022-08-09T10:20:31.857Z,31.04
2022-08-09T10:23:13.746Z,31.41
2022-08-09T10:26:07.297Z,31.28
2022-08-09T10:28:34.256Z,30.67
2022-08-09T10:34:11.450Z,30.49
2022-08-09T10:36:37.428Z,30.46
2022-08-09T10:39:13.927Z,30.65
2022-08-09T10:41:43.560Z,30.51
2022-08-09T10:44:10.792Z,30.20
2022-08-09T10:48:19.203Z,29.82
2022-08-09T10:50:15.100Z,29.68
2022-08-09T10:52:52.129Z,29.32
2022-08-09T10:55:27.980Z,29.42
2022-08-09T10:57:59.809Z,28.90
2022-08-09T11:00:56.919Z,28.90
2022-08-09T11:03:51.019Z,29.05
2022-08-09T11:06:22.910Z,28.50
2022-08-09T11:08:53.425Z,28.62
2022-08-09T11:11:22.876Z,28.18
2022-08-09T11:14:28.298Z,27.95
2022-08-09T11:16:57.135Z,27.61
2022-08-09T11:20:11.229Z,27.36
2022-08-09T11:22:44.841Z,25.87
2022-08-09T11:25:11.984Z,26.01
2022-08-09T11:28:03.891Z,26.40
2022-08-09T11:30:33.306Z,25.83
2022-08-09T11:33:30.465Z,25.97
2022-08-09T11:35:59.414Z,26.33
2022-08-09T11:38:32.620Z,26.14
2022-08-09T11:41:10.119Z,26.10
2022-08-09T11:43:40.186Z,26.36
2022-08-09T11:46:08.825Z,26.49
2022-08-09T11:48:55.361Z,27.61
2022-08-09T11:53:15.377Z,27.87
2022-08-09T11:54:27.771Z,27.78
2022-08-09T11:57:55.529Z,27.56
2022-08-09T12:00:27.606Z,27.13
2022-08-09T12:02:57.534Z,27.69
2022-08-09T12:05:39.550Z,27.50
2022-08-09T12:08:09.358Z,27.06
2022-08-09T12:10:44.243Z,26.42
2022-08-09T12:14:08.269Z,25.56
2022-08-09T12:16:37.509Z,25.02
2022-08-09T12:19:06.500Z,24.45
2022-08-09T12:21:50.406Z,24.62
2022-08-09T12:24:24.493Z,24.62
2022-08-09T12:29:14.071Z,24.86
2022-08-09T12:30:01.866Z,24.32
2022-08-09T12:32:41.013Z,24.97
2022-08-09T12:35:12.369Z,24.12
2022-08-09T12:37:50.713Z,24.72
2022-08-09T12:40:23.237Z,24.84
2022-08-09T12:42:52.125Z,24.51
2022-08-09T12:45:35.044Z,24.67
2022-08-09T12:48:19.868Z,23.85
2022-08-09T12:50:55.481Z,24.47
2022-08-09T12:53:35.201Z,23.80
2022-08-09T12:56:39.697Z,22.26
2022-08-09T12:59:21.585Z,22.63
2022-08-09T13:02:00.594Z,22.13
2022-08-09T13:04:37.836Z,21.34
2022-08-09T13:07:16.566Z,21.52
2022-08-09T13:09:52.994Z,21.61
2022-08-09T13:12:23.180Z,21.50
2022-08-09T13:14:54.111Z,21.82
2022-08-09T13:17:44.403Z,22.41
2022-08-09T13:20:17.547Z,22.92
2022-08-09T13:23:01.543Z,23.23
2022-08-09T13:25:53.230Z,24.01
2022-08-09T13:28:34.644Z,23.37
2022-08-09T13:32:14.113Z,22.67
2022-08-09T13:33:58.048Z,22.70
2022-08-09T13:36:41.770Z,21.84
2022-08-09T13:41:54.894Z,21.77
2022-08-09T13:42:12.622Z,20.77
2022-08-09T13:44:42.856Z,20.38
2022-08-09T13:47:29.189Z,20.88
2022-08-09T13:50:02.470Z,21.26
2022-08-09T13:52:30.432Z,21.31
2022-08-09T13:55:00.401Z,21.08
2022-08-09T13:57:35.533Z,20.43
2022-08-09T14:00:12.246Z,19.72
2022-08-09T14:02:42.649Z,20.02
2022-08-09T14:06:00.432Z,20.17
2022-08-09T14:08:17.550Z,18.54
2022-08-09T14:10:52.610Z,17.38
2022-08-09T14:14:15.339Z,15.01
2022-08-09T14:16:14.283Z,14.01
2022-08-09T14:18:46.012Z,13.06
2022-08-09T14:21:22.527Z,12.11
2022-08-09T14:23:54.477Z,10.99
2022-08-09T14:26:31.900Z,9.08
2022-08-09T14:29:07.793Z,10.32
2022-08-09T14:31:53.915Z,9.92
2022-08-09T14:34:30.948Z,9.73
2022-08-09T14:37:06.651Z,8.87
2022-08-09T14:39:45.598Z,8.92
2022-08-09T14:42:32.159Z,8.73
2022-08-09T14:46:39.512Z,9.00
2022-08-09T14:47:58.163Z,9.07
2022-08-09T14:50:28.504Z,8.41
2022-08-09T14:52:55.599Z,8.03
2022-08-09T14:55:22.814Z,7.39
2022-08-09T14:57:49.919Z,6.32
2022-08-09T15:00:17.728Z,6.51
2022-08-09T15:02:47.137Z,6.92
2022-08-09T15:05:16.918Z,7.32
2022-08-09T15:07:45.619Z,7.86
2022-08-09T15:10:24.963Z,7.63
2022-08-09T15:12:56.908Z,9.41
2022-08-09T15:15:28.414Z,9.99
2022-08-09T15:17:56.396Z,9.92
2022-08-09T15:21:55.732Z,8.93
2022-08-09T15:24:00.707Z,9.23
2022-08-09T15:25:59.363Z,9.74
2022-08-09T15:28:27.756Z,8.99
2022-08-09T15:31:10.414Z,8.66
2022-08-09T15:34:17.709Z,8.00
2022-08-09T15:36:31.345Z,7.98
2022-08-09T15:38:59.884Z,8.52
2022-08-09T15:41:31.508Z,8.61
2022-08-09T15:44:03.756Z,9.31
2022-08-09T15:46:33.437Z,9.47
2022-08-09T15:49:20.834Z,9.16
2022-08-09T15:52:05.100Z,9.24
2022-08-09T15:54:50.480Z,9.60
2022-08-09T15:57:33.891Z,10.48
2022-08-09T16:00:11.013Z,11.00
2022-08-09T16:02:43.646Z,12.71
2022-08-09T16:05:22.427Z,13.24
2022-08-09T16:07:50.649Z,13.50
2022-08-09T16:10:56.600Z,14.56
2022-08-09T16:14:03.347Z,15.05
2022-08-09T16:16:17.234Z,15.37
2022-08-09T16:18:49.897Z,16.09
2022-08-09T16:21:25.461Z,15.88
2022-08-09T16:23:58.264Z,16.35
2022-08-09T16:26:35.146Z,16.51
2022-08-09T16:29:10.964Z,16.89
2022-08-09T16:32:19.836Z,17.42
2022-08-09T16:34:53.579Z,18.63
2022-08-09T16:37:52.934Z,19.46
2022-08-09T16:40:09.621Z,19.92
2022-08-09T16:42:37.608Z,20.30
2022-08-09T16:45:06.516Z,20.68
2022-08-09T16:48:41.898Z,20.81
2022-08-09T16:50:33.225Z,21.36
2022-08-09T16:53:02.373Z,22.04
2022-08-09T16:55:58.531Z,22.57
2022-08-09T16:58:25.305Z,23.13
2022-08-09T17:00:54.925Z,23.71
2022-08-09T17:03:22.794Z,23.80
2022-08-09T17:06:07.643Z,24.14
2022-08-09T17:08:46.287Z,24.36
2022-08-09T17:11:39.986Z,25.17
2022-08-09T17:14:26.403Z,25.51
2022-08-09T17:17:01.199Z,25.92
2022-08-09T17:20:06.074Z,25.92
2022-08-09T17:22:24.846Z,26.38
2022-08-09T17:25:03.088Z,26.73
2022-08-09T17:27:32.563Z,27.24
2022-08-09T17:29:59.734Z,28.17
2022-08-09T17:32:37.599Z,28.43
2022-08-09T17:35:11.402Z,28.90
2022-08-09T17:38:11.603Z,28.88
2022-08-09T17:40:33.194Z,29.67
2022-08-09T17:43:10.776Z,29.93
2022-08-09T17:46:05.703Z,30.14
2022-08-09T17:48:46.727Z,30.59
2022-08-09T17:51:20.081Z,30.88
2022-08-09T17:53:51.889Z,30.71
2022-08-09T17:56:29.299Z,31.14
2022-08-09T17:59:09.591Z,31.60
2022-08-09T18:01:57.788Z,32.12
2022-08-09T18:04:26.829Z,31.77
2022-08-09T18:06:54.924Z,32.35
2022-08-09T18:09:25.098Z,32.53
2022-08-09T18:12:14.850Z,32.95
2022-08-09T18:14:49.655Z,32.90
2022-08-09T18:17:26.805Z,33.68
2022-08-09T18:20:55.738Z,33.51
2022-08-09T18:22:44.241Z,33.79
2022-08-09T18:25:19.591Z,34.23
2022-08-09T18:28:03.116Z,34.44
2022-08-09T18:30:35.484Z,34.89
2022-08-09T18:33:13.421Z,35.05
2022-08-09T18:35:59.184Z,35.70
2022-08-09T18:38:27.699Z,35.40
2022-08-09T18:40:55.656Z,35.87
2022-08-09T18:43:23.461Z,36.13
2022-08-09T18:46:49.612Z,36.26
2022-08-09T18:48:37.693Z,36.65
2022-08-09T18:51:04.787Z,36.81
2022-08-09T18:54:00.769Z,37.08
2022-08-09T18:56:27.222Z,37.53
2022-08-09T18:59:00.987Z,37.77
2022-08-09T19:01:28.702Z,37.65
2022-08-09T19:04:10.570Z,38.10
2022-08-09T19:06:38.673Z,38.52
2022-08-09T19:09:06.915Z,38.66
2022-08-09T19:11:38.079Z,39.07
2022-08-09T19:14:08.470Z,39.44
2022-08-09T19:16:36.473Z,39.67
2022-08-09T19:19:25.221Z,39.69
2022-08-09T19:22:04.577Z,39.96
2022-08-09T19:24:38.732Z,40.54
2022-08-09T19:27:22.341Z,40.28
2022-08-09T19:30:22.455Z,41.13
2022-08-09T19:32:37.210Z,40.78
2022-08-09T19:35:04.913Z,41.15
2022-08-09T19:37:40.866Z,41.42
2022-08-09T19:40:20.265Z,41.26
2022-08-09T19:42:49.741Z,41.94
2022-08-09T19:45:17.451Z,41.99
2022-08-09T19:47:45.007Z,41.61
2022-08-09T19:50:49.587Z,42.47
2022-08-09T19:53:04.249Z,42.28
2022-08-09T19:55:53.135Z,42.83
2022-08-09T19:58:30.119Z,43.26
2022-08-09T20:00:58.008Z,43.43
2022-08-09T20:04:17.215Z,43.58
2022-08-09T20:06:23.028Z,43.79
2022-08-09T20:08:56.718Z,43.67
2022-08-09T20:11:26.438Z,44.16
2022-08-09T20:13:55.165Z,44.44
2022-08-09T20:16:35.161Z,45.10
2022-08-09T20:19:47.765Z,44.97
2022-08-09T20:21:57.506Z,44.81
2022-08-09T20:24:29.853Z,44.97
2022-08-09T20:27:02.814Z,45.38
2022-08-09T20:29:37.311Z,45.45
2022-08-09T20:32:30.303Z,45.36
2022-08-09T20:34:57.648Z,46.13
2022-08-09T20:37:25.450Z,46.51
2022-08-09T20:40:17.170Z,46.76
2022-08-09T20:42:53.139Z,46.97
2022-08-09T20:45:59.137Z,46.96
2022-08-09T20:48:13.798Z,47.03
2022-08-09T20:50:51.112Z,48.03
2022-08-09T20:53:36.564Z,47.59
2022-08-09T20:56:08.856Z,47.84
2022-08-09T20:58:36.182Z,48.32
2022-08-09T21:01:32.843Z,48.08
2022-08-09T21:04:08.135Z,48.70
2022-08-09T21:06:42.790Z,48.53
2022-08-09T21:09:13.458Z,48.84
2022-08-09T21:14:31.192Z,48.92
2022-08-09T21:17:00.353Z,49.31
2022-08-09T21:20:18.240Z,49.52
2022-08-09T21:22:35.995Z,49.56
2022-08-09T21:25:21.126Z,49.25
2022-08-09T21:27:51.204Z,49.79
2022-08-09T21:30:28.343Z,50.68
2022-08-09T21:32:55.465Z,50.44
2022-08-09T21:35:24.289Z,50.37
2022-08-09T21:37:59.702Z,50.60
2022-08-09T21:40:30.807Z,50.54
2022-08-09T21:43:00.252Z,50.87
2022-08-09T21:45:28.098Z,50.78
2022-08-09T21:47:55.721Z,51.37
2022-08-09T21:50:33.865Z,51.78
2022-08-09T21:53:15.550Z,51.69
2022-08-09T21:55:51.219Z,52.39
2022-08-09T21:58:18.346Z,52.21
2022-08-09T22:00:48.756Z,52.48
2022-08-09T22:03:25.419Z,52.88
2022-08-09T22:05:54.152Z,52.81
2022-08-09T22:08:24.432Z,53.13
2022-08-09T22:11:26.457Z,53.69
2022-08-09T22:13:43.401Z,53.53
2022-08-09T22:16:11.881Z,54.22
2022-08-09T22:18:44.193Z,54.30
2022-08-09T22:21:50.402Z,54.07
2022-08-09T22:24:17.087Z,54.52
2022-08-09T22:26:51.579Z,54.94
2022-08-09T22:29:28.769Z,54.80
2022-08-09T22:31:59.758Z,55.81
2022-08-09T22:34:27.616Z,55.29
2022-08-09T22:36:55.636Z,56.24
2022-08-09T22:39:55.757Z,56.15
2022-08-09T22:42:21.917Z,56.42
2022-08-09T22:45:02.452Z,56.87
2022-08-09T22:48:16.874Z,57.18
2022-08-09T22:50:27.624Z,57.28
2022-08-09T22:52:58.318Z,57.49
2022-08-09T22:55:39.648Z,57.55
2022-08-09T22:58:30.684Z,58.01
2022-08-09T23:01:04.708Z,58.55
2022-08-09T23:04:04.868Z,58.31
2022-08-09T23:06:34.838Z,58.23
2022-08-09T23:09:07.444Z,59.40
2022-08-09T23:11:34.843Z,60.05
2022-08-09T23:14:03.415Z,59.45
2022-08-09T23:16:31.646Z,60.12
2022-08-09T23:18:58.820Z,60.59
2022-08-09T23:21:30.066Z,60.64
2022-08-09T23:24:05.240Z,60.95
2022-08-09T23:26:37.443Z,61.41
2022-08-09T23:29:11.417Z,61.59
2022-08-09T23:31:38.536Z,62.03
2022-08-09T23:34:05.717Z,61.93
2022-08-09T23:36:34.333Z,62.11
2022-08-09T23:39:02.410Z,62.43
2022-08-09T23:41:29.938Z,62.30
2022-08-09T23:43:59.238Z,62.52
2022-08-09T23:46:27.520Z,62.60
2022-08-09T23:48:54.868Z,62.67
2022-08-09T23:51:22.192Z,63.42
2022-08-09T23:53:50.417Z,62.85
2022-08-09T23:56:51.946Z,63.30
2022-08-09T23:59:07.123Z,63.26
